Time;durP1;ratioP1;P1;durP2;ratioP2;P2;SDS_P1;SDS_P2;PMS_P1;PMS_P2;Temp;Humidity;BMP_temperature;BMP_pressure;BME280_temperature;BME280_humidity;BME280_pressure;Samples;Min_cycle;Max_cycle;Signal;HPM_P1;HPM_P2
2022/01/18 00:01:28;;;;;;;11.37;6.70;;;8.20;1.00;8.80;102383.00;;;;5031763;28;20521;-80
2022/01/18 00:03:58;;;;;;;10.50;5.17;;;8.20;1.00;8.80;68212.00;;;;5025882;28;20458;-82
2022/01/18 00:06:28;;;;;;;13.53;4.70;;;8.20;1.00;8.80;102389.00;;;;5032052;28;20481;-81
2022/01/18 00:08:56;;;;;;;7.10;3.20;;;8.20;1.00;8.80;102395.00;;;;5039758;28;20436;-80
2022/01/18 00:11:28;;;;;;;10.33;3.90;;;8.20;1.00;8.80;102373.00;;;;5055409;28;20456;-80
2022/01/18 00:14:02;;;;;;;6.70;2.37;;;8.20;1.00;8.80;102386.00;;;;5030530;28;20465;-81
2022/01/18 00:16:37;;;;;;;6.57;2.10;;;8.20;1.00;8.80;102371.00;;;;5027479;28;20454;-81
2022/01/18 00:19:09;;;;;;;8.07;2.20;;;8.20;1.00;8.80;102372.00;;;;5027119;28;20484;-81
2022/01/18 00:21:52;;;;;;;5.13;2.40;;;8.30;1.00;8.80;102388.00;;;;5031149;28;20488;-82
2022/01/18 00:24:20;;;;;;;7.00;2.33;;;8.30;1.00;8.90;68223.00;;;;5033302;28;20483;-81
2022/01/18 00:26:49;;;;;;;6.77;1.40;;;8.30;1.00;8.90;102399.00;;;;5033413;28;20459;-81
2022/01/18 00:29:22;;;;;;;5.40;1.97;;;8.30;1.00;8.90;102404.00;;;;5031652;28;20485;-80
2022/01/18 00:32:06;;;;;;;6.50;1.70;;;8.30;1.00;8.90;68222.00;;;;5030735;28;20476;-80
2022/01/18 00:34:38;;;;;;;4.73;1.70;;;8.40;1.00;8.80;102392.00;;;;5028134;28;20456;-80
2022/01/18 00:37:25;;;;;;;7.50;1.93;;;8.30;1.00;8.80;102398.00;;;;5031825;28;20480;-79
2022/01/18 00:39:55;;;;;;;4.43;1.47;;;8.30;1.00;8.80;102397.00;;;;5035753;28;20497;-80
2022/01/18 00:42:23;;;;;;;7.63;1.80;;;8.30;1.00;8.80;102392.00;;;;5037844;28;20523;-81
2022/01/18 00:44:53;;;;;;;9.00;1.50;;;8.20;1.00;8.80;102397.00;;;;5033867;28;20589;-81
2022/01/18 00:47:21;;;;;;;5.17;1.60;;;8.20;1.00;8.80;102388.00;;;;5032125;28;20460;-80
2022/01/18 00:49:58;;;;;;;4.90;1.30;;;8.20;1.00;8.80;102401.00;;;;5031548;28;20453;-81
2022/01/18 00:52:28;;;;;;;7.50;2.00;;;8.20;1.00;8.80;68212.00;;;;5031092;28;20483;-80
2022/01/18 00:54:59;;;;;;;6.67;1.93;;;8.30;1.00;8.80;102402.00;;;;5029993;28;20457;-81
2022/01/18 00:57:27;;;;;;;8.60;1.90;;;8.30;1.00;8.90;102403.00;;;;5039073;28;20449;-82
2022/01/18 00:59:57;;;;;;;12.20;2.20;;;8.30;1.00;8.80;68216.00;;;;5040393;28;20497;-81
2022/01/18 01:02:26;;;;;;;6.40;1.73;;;8.30;1.00;8.80;102417.00;;;;5040198;28;20464;-81
2022/01/18 01:04:54;;;;;;;4.77;1.90;;;8.30;1.00;8.90;102418.00;;;;5038954;28;20942;-79
2022/01/18 01:07:24;;;;;;;7.47;3.00;;;8.30;1.00;8.90;102421.00;;;;5039450;28;20460;-80
2022/01/18 01:09:53;;;;;;;6.63;3.50;;;8.30;1.00;8.90;102431.00;;;;5036768;28;20467;-81
2022/01/18 01:12:27;;;;;;;7.37;1.83;;;8.40;1.00;8.80;102430.00;;;;5054929;28;20469;-81
2022/01/18 01:15:04;;;;;;;5.13;1.63;;;8.30;1.00;8.80;102421.00;;;;5029831;28;20454;-80
2022/01/18 01:17:43;;;;;;;4.63;1.30;;;8.20;1.00;8.90;102436.00;;;;5034375;28;20500;-80
2022/01/18 01:34:22;;;;;;;5.33;1.70;;;8.60;1.00;9.10;102439.00;;;;5027563;28;21242;-79
2022/01/18 01:42:57;;;;;;;7.43;1.90;;;8.70;1.00;9.20;102443.00;;;;5034261;28;20480;-79
2022/01/18 01:45:29;;;;;;;4.50;1.90;;;8.70;1.00;9.20;102443.00;;;;5026582;28;20454;-79
2022/01/18 01:47:59;;;;;;;5.90;2.43;;;8.80;1.00;9.20;102444.00;;;;5025032;28;20465;-79
2022/01/18 01:50:40;;;;;;;5.60;2.23;;;8.80;1.00;9.30;102418.00;;;;5025474;28;20507;-79
2022/01/18 01:53:08;;;;;;;7.13;2.40;;;8.80;1.00;9.20;102442.00;;;;5025757;28;20487;-79
2022/01/18 01:55:37;;;;;;;5.77;2.27;;;8.80;1.00;9.30;102439.00;;;;5026964;28;20454;-79
2022/01/18 01:58:05;;;;;;;5.10;1.40;;;8.90;1.00;9.30;102446.00;;;;5041744;28;20532;-80
2022/01/18 02:00:34;;;;;;;7.67;2.23;;;8.90;1.00;9.30;102449.00;;;;5024353;28;20491;-81
2022/01/18 02:03:04;;;;;;;3.80;2.23;;;8.90;1.00;9.30;102442.00;;;;5026204;28;21099;-80
2022/01/18 02:05:33;;;;;;;6.97;2.47;;;8.90;1.00;9.30;102445.00;;;;5013287;28;20560;-79
2022/01/18 02:08:01;;;;;;;4.80;1.77;;;8.90;1.00;9.30;102448.00;;;;5017305;28;20457;-79
2022/01/18 02:10:30;;;;;;;8.00;2.77;;;8.90;1.00;9.30;102441.00;;;;5018785;28;20472;-78
2022/01/18 02:12:59;;;;;;;8.20;2.30;;;8.90;1.00;9.30;102443.00;;;;5011821;28;20488;-78
2022/01/18 02:15:27;;;;;;;5.93;2.63;;;8.80;1.00;9.30;102436.00;;;;5011557;28;20578;-78
2022/01/18 02:23:31;;;;;;;8.00;2.60;;;8.80;1.00;9.30;102445.00;;;;5013792;28;20496;-77
2022/01/18 02:26:00;;;;;;;5.20;2.63;;;8.80;1.00;9.20;102428.00;;;;5021347;28;20465;-76
2022/01/18 02:28:29;;;;;;;10.50;2.83;;;8.80;1.00;9.20;102434.00;;;;5030027;28;20454;-79
2022/01/18 02:30:57;;;;;;;8.53;3.00;;;8.80;1.00;9.20;102449.00;;;;5025493;28;20460;-78
2022/01/18 02:33:26;;;;;;;6.60;2.30;;;8.80;1.00;9.20;102441.00;;;;5031522;28;20533;-79
2022/01/18 02:35:56;;;;;;;10.73;2.90;;;8.80;1.00;9.20;102438.00;;;;5020891;28;20461;-78
2022/01/18 02:38:24;;;;;;;7.83;2.70;;;8.80;1.00;9.20;102442.00;;;;5018650;28;20940;-78
2022/01/18 02:40:53;;;;;;;9.37;2.60;;;8.80;1.00;9.30;102436.00;;;;5028458;28;20477;-79
2022/01/18 02:46:19;;;;;;;8.80;2.77;;;8.80;1.00;9.30;102440.00;;;;4946321;28;20467;-78
2022/01/18 02:48:48;;;;;;;6.07;2.57;;;8.80;1.00;9.30;102440.00;;;;4998296;28;20462;-79
2022/01/18 02:51:17;;;;;;;13.60;4.77;;;8.80;1.00;9.20;102432.00;;;;5012786;28;20955;-78
2022/01/18 02:54:04;;;;;;;6.57;2.90;;;8.70;1.00;9.20;102437.00;;;;5011082;28;20508;-78
2022/01/18 02:56:35;;;;;;;7.43;3.20;;;8.80;1.00;9.20;102434.00;;;;5019744;28;20459;-79
2022/01/18 02:59:13;;;;;;;15.30;3.70;;;8.90;1.00;9.20;102427.00;;;;5015076;28;20491;-78
2022/01/18 03:04:28;;;;;;;8.13;3.13;;;8.70;1.00;9.20;102440.00;;;;5010684;28;20515;-78
2022/01/18 03:06:57;;;;;;;11.70;3.17;;;8.70;1.00;9.20;102450.00;;;;5019796;28;20499;-78
2022/01/18 03:09:26;;;;;;;14.03;3.63;;;8.70;1.00;9.20;102433.00;;;;5025675;28;20744;-78
2022/01/18 03:11:54;;;;;;;5.93;3.10;;;8.80;1.00;9.20;102440.00;;;;5019709;28;20478;-78
2022/01/18 03:14:23;;;;;;;10.60;4.17;;;8.80;1.00;9.30;102452.00;;;;5021604;28;21215;-78
2022/01/18 03:16:51;;;;;;;7.63;3.00;;;8.80;1.00;9.30;102445.00;;;;5020257;28;20453;-79
2022/01/18 03:19:19;;;;;;;10.87;3.77;;;8.80;1.00;9.30;102445.00;;;;5016182;28;20493;-78
2022/01/18 03:21:50;;;;;;;10.53;3.23;;;8.80;1.00;9.30;102445.00;;;;5012421;28;20853;-78
2022/01/18 03:24:42;;;;;;;11.03;4.20;;;8.80;1.00;9.30;102449.00;;;;5025246;28;20548;-79
2022/01/18 03:29:55;;;;;;;5.00;3.07;;;8.80;1.00;9.30;102446.00;;;;5012036;28;20472;-78
2022/01/18 03:32:25;;;;;;;10.13;3.37;;;8.80;1.00;9.10;102461.00;;;;5011403;28;20591;-78
2022/01/18 03:34:53;;;;;;;8.83;2.70;;;8.70;1.00;9.20;102465.00;;;;5010766;28;20465;-78
2022/01/18 03:37:21;;;;;;;6.93;2.77;;;8.70;1.00;9.10;102467.00;;;;5018920;28;20469;-78
2022/01/18 03:39:51;;;;;;;6.60;2.67;;;8.60;1.00;9.10;102461.00;;;;5013165;28;20492;-78
2022/01/18 03:42:39;;;;;;;10.90;3.00;;;8.70;1.00;9.00;102460.00;;;;5017740;28;20469;-77
2022/01/18 03:45:12;;;;;;;8.10;2.90;;;8.60;1.00;9.10;102460.00;;;;5017472;28;20458;-81
2022/01/18 03:47:41;;;;;;;8.27;2.53;;;8.60;1.00;9.00;102452.00;;;;5019315;28;20472;-78
2022/01/18 03:50:12;;;;;;;6.83;1.80;;;8.50;1.00;9.00;102452.00;;;;5023040;28;20468;-79
2022/01/18 03:52:41;;;;;;;8.70;2.10;;;8.50;1.00;8.90;102445.00;;;;5023098;28;20547;-78
2022/01/18 03:55:14;;;;;;;12.70;2.80;;;8.50;1.00;8.90;102460.00;;;;5025824;28;20471;-79
2022/01/18 03:57:43;;;;;;;6.73;2.30;;;8.50;1.00;8.80;102453.00;;;;5016559;28;21184;-79
2022/01/18 04:00:15;;;;;;;9.73;2.13;;;8.40;1.00;8.80;102466.00;;;;5021983;28;20472;-78
2022/01/18 04:02:44;;;;;;;5.30;1.80;;;8.40;1.00;8.80;102469.00;;;;5035781;28;20472;-79
2022/01/18 04:05:13;;;;;;;12.87;2.37;;;8.40;1.00;8.70;102463.00;;;;5034418;28;20705;-79
2022/01/18 04:07:42;;;;;;;8.13;1.90;;;8.30;1.00;8.80;102469.00;;;;5022579;28;20464;-78
2022/01/18 04:10:13;;;;;;;8.23;1.90;;;8.30;1.00;8.80;102473.00;;;;5040231;28;20464;-78
2022/01/18 04:12:42;;;;;;;5.00;1.70;;;8.40;1.00;8.80;102478.00;;;;5033715;28;20484;-78
2022/01/18 04:15:13;;;;;;;7.13;1.87;;;8.20;1.00;8.80;102472.00;;;;5026393;28;20475;-79
2022/01/18 04:18:06;;;;;;;5.77;1.73;;;8.10;1.00;8.70;102479.00;;;;5022514;28;20452;-79
2022/01/18 04:29:09;;;;;;;6.73;2.00;;;8.00;1.00;8.70;102470.00;;;;5007268;28;20559;-79
2022/01/18 04:31:39;;;;;;;3.20;1.40;;;8.00;1.00;8.70;102475.00;;;;5008918;28;20480;-79
2022/01/18 04:34:07;;;;;;;4.63;1.40;;;8.00;1.00;8.70;102475.00;;;;5014599;28;20461;-79
2022/01/18 04:36:37;;;;;;;6.63;1.83;;;8.00;1.00;8.70;68190.00;;;;5012068;28;20452;-79
2022/01/18 04:39:05;;;;;;;5.00;1.23;;;8.00;1.00;8.70;102455.00;;;;5010418;28;20928;-79
2022/01/18 04:41:35;;;;;;;6.07;1.90;;;8.00;1.00;217.30;160450.00;;;;5011779;28;20476;-78
2022/01/18 04:49:51;;;;;;;5.53;1.93;;;8.00;1.00;8.50;102472.00;;;;5014953;28;21535;-79
2022/01/18 04:52:19;;;;;;;5.63;1.97;;;8.00;1.00;8.50;102466.00;;;;5025953;28;20473;-80
2022/01/18 04:54:57;;;;;;;9.37;2.10;;;7.90;1.00;8.40;102477.00;;;;5020944;28;20462;-79
2022/01/18 05:00:15;;;;;;;7.73;1.40;;;7.80;1.00;8.40;102468.00;;;;5013636;28;20473;-79
2022/01/18 05:02:43;;;;;;;4.00;1.57;;;7.80;1.00;8.40;102463.00;;;;5013956;28;20511;-78
2022/01/18 05:05:21;;;;;;;4.50;1.50;;;7.70;1.00;8.40;102471.00;;;;5013630;28;20464;-79
2022/01/18 05:07:49;;;;;;;4.50;1.67;;;7.80;1.00;8.40;102493.00;;;;5016718;28;20468;-79
2022/01/18 05:10:20;;;;;;;4.60;1.63;;;7.80;1.00;8.50;102486.00;;;;5023848;28;20453;-79
2022/01/18 05:12:52;;;;;;;3.93;1.07;;;7.90;1.00;8.50;102490.00;;;;5027492;28;20480;-78
2022/01/18 05:15:40;;;;;;;4.43;1.43;;;8.00;1.00;8.60;102493.00;;;;5029406;28;20453;-78
2022/01/18 05:21:10;;;;;;;3.40;1.27;;;7.90;1.00;8.60;102481.00;;;;5020141;28;20489;-78
2022/01/18 05:23:38;;;;;;;4.27;1.00;;;7.90;1.00;8.70;102501.00;;;;5015675;28;20545;-78
2022/01/18 05:26:06;;;;;;;6.30;1.40;;;8.00;1.00;8.70;102488.00;;;;5016326;28;20465;-78
2022/01/18 05:28:36;;;;;;;4.70;1.13;;;8.10;1.00;8.70;102506.00;;;;5030701;28;20457;-78
2022/01/18 05:31:04;;;;;;;3.07;0.90;;;8.10;1.00;8.70;102504.00;;;;5018639;28;20484;-78
2022/01/18 05:33:33;;;;;;;3.60;1.30;;;8.20;1.00;8.70;102504.00;;;;5015533;28;20484;-80
2022/01/18 05:36:01;;;;;;;3.60;1.10;;;8.20;1.00;8.70;102504.00;;;;5015590;28;20448;-79
2022/01/18 05:38:32;;;;;;;3.53;1.10;;;8.20;1.00;8.80;102510.00;;;;5015851;28;20465;-79
2022/01/18 05:41:00;;;;;;;2.00;0.90;;;8.20;1.00;8.80;102516.00;;;;5017964;28;20479;-79
2022/01/18 05:43:29;;;;;;;3.03;1.20;;;8.30;1.00;8.80;102525.00;;;;5019069;28;20575;-80
2022/01/18 05:45:59;;;;;;;5.27;1.33;;;8.30;1.00;8.90;102510.00;;;;5019923;28;20600;-77
2022/01/18 05:48:28;;;;;;;2.70;1.03;;;8.30;1.00;8.90;102528.00;;;;5019393;28;20453;-78
2022/01/18 05:50:59;;;;;;;4.50;1.37;;;8.30;1.00;8.90;102525.00;;;;5016814;28;20468;-78
2022/01/18 05:53:28;;;;;;;3.23;1.10;;;8.30;1.00;8.90;102523.00;;;;5019084;28;20508;-79
2022/01/18 05:55:56;;;;;;;4.20;1.53;;;8.40;1.00;8.90;102517.00;;;;5021439;28;20469;-80
2022/01/18 05:58:24;;;;;;;4.57;1.60;;;8.40;1.00;8.90;102534.00;;;;5019820;28;20456;-77
2022/01/18 06:00:55;;;;;;;5.10;1.20;;;8.40;1.00;9.00;102522.00;;;;5021146;28;20468;-80
2022/01/18 06:03:31;;;;;;;3.37;1.10;;;8.40;1.00;8.90;102524.00;;;;5020714;28;20480;-77
2022/01/18 06:08:45;;;;;;;4.93;2.00;;;8.40;1.00;8.90;102519.00;;;;5036873;28;20453;-79
2022/01/18 06:11:14;;;;;;;2.97;1.10;;;8.50;1.00;9.00;102522.00;;;;5014930;28;20994;-79
2022/01/18 06:13:42;;;;;;;2.73;1.40;;;8.50;1.00;9.00;102529.00;;;;5030153;28;20590;-78
2022/01/18 06:16:10;;;;;;;3.97;1.50;;;8.60;1.00;9.00;102525.00;;;;5016696;28;20464;-79
2022/01/18 06:18:40;;;;;;;2.70;1.07;;;8.60;1.00;9.00;102532.00;;;;5017670;28;20450;-79
2022/01/18 06:21:08;;;;;;;4.90;1.57;;;8.60;1.00;9.10;102534.00;;;;5019234;28;20477;-78
2022/01/18 06:23:37;;;;;;;3.90;1.37;;;8.70;1.00;9.10;102532.00;;;;5018779;28;20478;-80
2022/01/18 06:26:05;;;;;;;2.60;1.07;;;8.60;1.00;9.10;102535.00;;;;5018537;28;20453;-79
2022/01/18 06:28:34;;;;;;;3.60;1.27;;;8.60;1.00;9.00;102524.00;;;;5021241;28;20465;-78
2022/01/18 06:31:02;;;;;;;6.23;1.43;;;8.50;1.00;9.10;102535.00;;;;5025704;28;20460;-79
2022/01/18 06:33:31;;;;;;;4.13;1.30;;;8.70;1.00;9.10;102529.00;;;;5019866;28;20482;-78
2022/01/18 06:36:01;;;;;;;4.10;1.10;;;8.60;1.00;9.10;102521.00;;;;5034698;28;20450;-80
2022/01/18 06:38:29;;;;;;;6.30;1.57;;;8.60;1.00;9.10;102524.00;;;;5032446;28;20468;-79
2022/01/18 06:40:57;;;;;;;4.60;1.40;;;8.60;1.00;9.00;102533.00;;;;5042851;28;20476;-79
2022/01/18 06:43:27;;;;;;;4.10;1.37;;;8.60;1.00;9.00;102539.00;;;;5023607;28;20481;-80
2022/01/18 06:45:55;;;;;;;6.03;1.57;;;8.50;1.00;9.00;102543.00;;;;5022681;28;20457;-79
2022/01/18 06:48:24;;;;;;;5.77;1.70;;;8.50;1.00;9.00;102542.00;;;;5020433;28;20530;-77
2022/01/18 06:50:52;;;;;;;2.83;1.30;;;8.60;1.00;9.00;102544.00;;;;5019809;28;20461;-79
2022/01/18 06:53:22;;;;;;;5.63;1.30;;;8.50;1.00;9.10;102549.00;;;;5017573;28;20480;-78
2022/01/18 06:55:54;;;;;;;5.53;1.37;;;8.50;1.00;8.90;102555.00;;;;5015681;28;20948;-78
2022/01/18 06:58:23;;;;;;;3.00;1.23;;;8.50;1.00;8.90;102568.00;;;;5016881;28;20458;-78
2022/01/18 07:00:52;;;;;;;2.67;1.30;;;8.50;1.00;9.00;102562.00;;;;5017273;28;20464;-80
2022/01/18 07:03:21;;;;;;;4.60;1.70;;;8.50;1.00;9.00;102555.00;;;;5017546;28;20532;-78
2022/01/18 07:05:49;;;;;;;2.37;1.43;;;8.50;1.00;8.90;102560.00;;;;5017626;28;20496;-79
2022/01/18 07:08:18;;;;;;;9.17;1.90;;;8.50;1.00;8.90;102568.00;;;;5020727;28;20463;-79
2022/01/18 07:10:47;;;;;;;6.43;1.73;;;8.40;1.00;8.90;102568.00;;;;5018907;28;20465;-79
2022/01/18 07:13:16;;;;;;;5.23;1.47;;;8.40;1.00;8.90;102569.00;;;;5017375;28;20469;-79
2022/01/18 07:15:44;;;;;;;4.43;1.60;;;8.40;1.00;8.90;102555.00;;;;5018203;28;20457;-79
2022/01/18 07:18:12;;;;;;;5.63;1.50;;;8.40;1.00;8.90;102555.00;;;;5015422;28;20449;-78
2022/01/18 07:20:41;;;;;;;8.00;2.27;;;8.40;1.00;9.00;102572.00;;;;5018558;28;20468;-78
2022/01/18 07:23:13;;;;;;;8.20;1.97;;;8.40;1.00;9.00;102564.00;;;;5032233;28;20477;-78
2022/01/18 07:25:45;;;;;;;5.03;1.70;;;8.40;1.00;9.00;102570.00;;;;5019080;28;20457;-81
2022/01/18 07:28:17;;;;;;;4.20;1.37;;;8.50;1.00;9.00;102573.00;;;;5020615;28;20448;-79
2022/01/18 07:30:46;;;;;;;2.97;1.67;;;8.40;1.00;9.00;102568.00;;;;5036769;28;20576;-79
2022/01/18 07:33:15;;;;;;;6.80;1.67;;;8.50;1.00;9.10;102582.00;;;;5027458;28;20535;-78
2022/01/18 07:35:44;;;;;;;3.10;2.13;;;8.50;1.00;9.10;102572.00;;;;5041159;28;20509;-76
2022/01/18 07:38:16;;;;;;;7.13;2.37;;;8.70;1.00;9.10;102577.00;;;;5037621;28;21085;-78
2022/01/18 07:40:47;;;;;;;5.07;2.00;;;8.60;1.00;9.20;102586.00;;;;5043114;28;20457;-78
2022/01/18 07:43:18;;;;;;;6.70;2.63;;;8.70;1.00;9.30;102578.00;;;;5027155;28;20497;-79
2022/01/18 07:45:49;;;;;;;4.13;2.50;;;8.80;1.00;9.20;102586.00;;;;5038351;28;20459;-79
2022/01/18 07:48:21;;;;;;;6.80;3.00;;;8.80;1.00;9.20;102592.00;;;;5020004;28;20538;-78
2022/01/18 07:50:53;;;;;;;7.00;2.67;;;8.80;1.00;9.30;102590.00;;;;5032985;28;20533;-78
2022/01/18 07:53:22;;;;;;;7.30;2.47;;;8.80;1.00;9.40;102589.00;;;;5033332;28;20485;-79
2022/01/18 07:55:50;;;;;;;5.70;2.80;;;8.80;1.00;9.40;102595.00;;;;5032153;28;20556;-78
2022/01/18 07:58:20;;;;;;;6.43;2.23;;;8.90;1.00;9.50;102602.00;;;;5034709;28;20452;-79
2022/01/18 08:00:48;;;;;;;9.27;5.00;;;8.90;1.00;9.60;102588.00;;;;5035356;28;20483;-79
2022/01/18 08:03:17;;;;;;;13.70;8.30;;;9.00;1.00;9.60;102593.00;;;;5033102;28;20524;-79
2022/01/18 08:05:48;;;;;;;15.00;8.37;;;9.10;1.00;9.60;102591.00;;;;5020763;28;20991;-79
2022/01/18 08:08:17;;;;;;;14.03;9.23;;;9.00;1.00;9.50;102591.00;;;;5012922;28;20488;-79
2022/01/18 08:10:45;;;;;;;12.50;7.80;;;9.00;1.00;9.50;102584.00;;;;5022737;28;20457;-80
2022/01/18 08:13:14;;;;;;;15.10;8.70;;;9.00;1.00;9.60;102580.00;;;;5016426;28;20871;-77
2022/01/18 08:15:44;;;;;;;15.30;8.90;;;9.10;1.00;9.60;102602.00;;;;5013825;28;20458;-79
2022/01/18 08:18:15;;;;;;;14.00;8.40;;;9.10;1.00;9.60;102594.00;;;;5019857;28;20449;-78
2022/01/18 08:20:44;;;;;;;16.30;9.20;;;9.00;1.00;9.60;102599.00;;;;5014007;28;20464;-79
2022/01/18 08:23:12;;;;;;;13.97;7.70;;;9.10;1.00;9.60;102600.00;;;;5013440;28;20500;-79
2022/01/18 08:25:40;;;;;;;14.87;9.17;;;9.10;1.00;9.60;102599.00;;;;5014161;28;20458;-79
2022/01/18 08:28:08;;;;;;;13.07;9.50;;;9.30;1.00;9.70;102602.00;;;;5023473;28;20472;-79
2022/01/18 08:30:37;;;;;;;11.77;8.43;;;9.20;1.00;9.80;102606.00;;;;5018587;28;20446;-79
2022/01/18 08:33:07;;;;;;;15.97;10.20;;;9.30;1.00;9.80;102615.00;;;;5030932;28;20940;-79
2022/01/18 08:35:37;;;;;;;17.90;10.10;;;9.40;1.00;9.90;102606.00;;;;5028936;28;20960;-78
2022/01/18 08:38:05;;;;;;;14.23;9.63;;;9.50;1.00;10.00;102605.00;;;;5031759;28;20465;-78
2022/01/18 08:40:34;;;;;;;13.97;9.20;;;9.50;1.00;10.00;102625.00;;;;5011055;28;20463;-79
2022/01/18 08:43:02;;;;;;;20.80;9.97;;;9.50;1.00;10.10;102605.00;;;;5013899;28;20488;-78
2022/01/18 08:45:31;;;;;;;16.70;7.70;;;9.50;1.00;10.10;102614.00;;;;5013994;28;20482;-79
2022/01/18 08:48:00;;;;;;;12.10;7.80;;;9.50;1.00;10.10;102606.00;;;;5018680;28;20484;-79
2022/01/18 08:50:31;;;;;;;13.07;8.10;;;9.60;1.00;10.30;102619.00;;;;5012397;28;21845;-79
2022/01/18 08:52:59;;;;;;;12.47;7.50;;;9.80;1.00;10.40;102612.00;;;;5013001;28;20486;-79
2022/01/18 08:55:29;;;;;;;10.17;7.37;;;9.90;1.00;10.50;102622.00;;;;5013800;28;20468;-79
2022/01/18 08:57:57;;;;;;;13.20;6.90;;;10.00;1.00;10.60;102622.00;;;;5013653;28;20463;-80
2022/01/18 09:00:27;;;;;;;15.50;8.20;;;10.10;1.00;10.70;102610.00;;;;5014189;28;20457;-80
2022/01/18 09:02:55;;;;;;;14.80;9.03;;;10.20;1.00;10.80;102611.00;;;;5030156;28;20492;-80
2022/01/18 09:05:24;;;;;;;12.70;8.97;;;10.30;1.00;10.80;102612.00;;;;5027915;28;20472;-79
2022/01/18 09:07:56;;;;;;;15.57;9.43;;;10.30;1.00;10.80;102618.00;;;;5021854;28;20466;-80
2022/01/18 09:10:26;;;;;;;17.53;9.70;;;10.40;1.00;10.80;102618.00;;;;5019337;28;20552;-78
2022/01/18 09:12:54;;;;;;;17.00;9.50;;;10.40;1.00;10.90;102624.00;;;;5016501;28;20560;-81
2022/01/18 09:15:24;;;;;;;14.40;10.23;;;10.50;1.00;11.00;102621.00;;;;5016822;28;20461;-80
2022/01/18 09:17:54;;;;;;;13.80;9.37;;;10.60;1.00;11.10;102625.00;;;;5019097;28;20461;-80
2022/01/18 09:20:24;;;;;;;18.30;10.30;;;10.70;1.00;11.20;102620.00;;;;5024080;28;20453;-81
2022/01/18 09:22:54;;;;;;;16.70;12.13;;;10.80;1.00;11.20;102625.00;;;;5021404;28;21760;-81
2022/01/18 09:25:28;;;;;;;20.87;12.30;;;10.80;1.00;11.20;102639.00;;;;5032478;28;20453;-80
2022/01/18 09:27:57;;;;;;;17.40;13.17;;;10.80;1.00;11.10;102622.00;;;;5025854;28;20869;-80
2022/01/18 09:30:30;;;;;;;18.03;13.90;;;11.00;1.00;10.90;102643.00;;;;5023415;28;20468;-80
2022/01/18 09:33:00;;;;;;;18.63;13.93;;;10.60;1.00;10.90;102632.00;;;;5021447;28;20485;-80
2022/01/18 09:35:29;;;;;;;20.90;12.87;;;10.60;1.00;10.90;102650.00;;;;5021710;28;20947;-80
2022/01/18 09:37:59;;;;;;;21.43;15.00;;;10.50;1.00;10.90;102649.00;;;;5023507;28;20461;-79
2022/01/18 09:40:28;;;;;;;21.47;13.43;;;10.50;1.00;10.90;102652.00;;;;5026581;28;20458;-80
2022/01/18 09:43:00;;;;;;;19.87;13.97;;;10.50;1.00;11.00;102656.00;;;;5021676;28;20479;-81
2022/01/18 09:45:31;;;;;;;20.47;12.93;;;10.50;1.00;11.00;102650.00;;;;5023961;28;20493;-80
2022/01/18 09:48:00;;;;;;;18.20;12.83;;;10.60;1.00;11.00;102654.00;;;;5023644;28;20471;-82
2022/01/18 09:50:33;;;;;;;17.37;12.80;;;10.60;1.00;11.10;102653.00;;;;5022924;28;20496;-79
2022/01/18 09:53:06;;;;;;;39.63;14.93;;;10.70;1.00;11.20;102656.00;;;;5019580;28;20896;-80
2022/01/18 09:55:36;;;;;;;18.60;13.67;;;10.80;1.00;11.40;102658.00;;;;5017856;28;20556;-81
2022/01/18 09:58:07;;;;;;;22.87;12.10;;;11.00;1.00;11.50;102666.00;;;;5022598;28;20461;-80
2022/01/18 10:00:39;;;;;;;20.43;13.27;;;11.10;1.00;11.50;102648.00;;;;5019934;28;20534;-80
2022/01/18 10:03:29;;;;;;;19.83;13.00;;;11.10;1.00;11.60;102645.00;;;;5022630;28;21039;-80
2022/01/18 10:05:58;;;;;;;21.70;12.27;;;11.10;1.00;11.50;102638.00;;;;5031805;28;20475;-79
2022/01/18 10:08:28;;;;;;;20.77;12.83;;;11.10;1.00;11.50;102638.00;;;;5030270;28;20958;-80
2022/01/18 10:10:59;;;;;;;18.20;12.10;;;11.10;1.00;11.40;102642.00;;;;5029908;28;20471;-79
2022/01/18 10:13:31;;;;;;;20.00;13.00;;;11.10;1.00;11.40;102640.00;;;;5021172;28;20982;-80
2022/01/18 10:16:07;;;;;;;17.23;11.83;;;11.10;1.00;11.50;102631.00;;;;5020832;28;20492;-81
2022/01/18 10:18:45;;;;;;;18.80;10.83;;;11.10;1.00;11.50;102644.00;;;;5016827;28;20496;-79
2022/01/18 10:21:20;;;;;;;17.93;11.10;;;11.10;1.00;11.50;102633.00;;;;5022003;28;21001;-80
2022/01/18 10:23:50;;;;;;;16.03;12.80;;;11.10;1.00;11.60;102619.00;;;;5019169;28;20487;-80
2022/01/18 10:26:24;;;;;;;20.70;12.70;;;11.10;1.00;11.60;102613.00;;;;5017318;28;21417;-79
2022/01/18 10:29:02;;;;;;;18.93;12.90;;;11.10;1.00;11.60;102629.00;;;;5018289;28;21170;-79
2022/01/18 10:31:38;;;;;;;13.30;9.30;;;11.20;1.00;11.60;102603.00;;;;5018112;28;20461;-79
2022/01/18 10:37:09;;;;;;;16.90;9.70;;;11.40;1.00;11.80;102626.00;;;;4993977;28;20457;-79
2022/01/18 10:39:42;;;;;;;13.83;9.50;;;11.40;1.00;11.90;102635.00;;;;5026591;28;20467;-80
2022/01/18 10:42:17;;;;;;;14.17;8.87;;;11.50;1.00;11.90;102641.00;;;;5018766;28;20466;-80
2022/01/18 10:44:47;;;;;;;16.50;8.37;;;11.50;1.00;11.90;102635.00;;;;5022761;28;20487;-80
2022/01/18 10:47:18;;;;;;;15.17;9.20;;;11.60;1.00;11.90;102634.00;;;;5019196;28;20551;-81
2022/01/18 10:49:47;;;;;;;12.27;7.80;;;11.50;1.00;11.80;102640.00;;;;5017118;28;20463;-78
2022/01/18 10:52:21;;;;;;;13.60;8.23;;;11.50;1.00;11.70;102631.00;;;;5028701;28;20541;-80
2022/01/18 10:54:54;;;;;;;11.13;7.97;;;11.40;1.00;11.60;102639.00;;;;5033841;28;20491;-79
2022/01/18 10:57:25;;;;;;;11.27;7.73;;;11.30;1.00;11.50;102639.00;;;;5031302;28;20465;-80
2022/01/18 10:59:59;;;;;;;12.13;7.40;;;11.20;1.00;11.50;102635.00;;;;5023666;28;20468;-81
2022/01/18 11:02:27;;;;;;;9.40;5.63;;;11.20;1.00;11.30;102623.00;;;;5031170;28;20497;-78
2022/01/18 11:04:58;;;;;;;6.70;4.73;;;11.00;1.00;11.30;102623.00;;;;5016686;28;20484;-81
2022/01/18 11:07:28;;;;;;;8.63;5.93;;;10.90;1.00;11.20;102615.00;;;;5013344;28;20458;-80
2022/01/18 11:10:07;;;;;;;12.13;6.70;;;10.90;1.00;11.20;102622.00;;;;5023711;28;20556;-79
2022/01/18 11:12:49;;;;;;;9.00;6.57;;;10.60;1.00;11.10;102619.00;;;;5024255;28;20477;-80
2022/01/18 11:15:20;;;;;;;10.00;7.03;;;10.40;1.00;11.00;102621.00;;;;5018046;28;20467;-80
2022/01/18 11:17:56;;;;;;;9.33;6.10;;;10.30;1.00;11.10;102601.00;;;;5025381;28;20458;-80
2022/01/18 11:20:26;;;;;;;9.53;6.30;;;10.40;1.00;11.20;102599.00;;;;5013623;28;20473;-81
2022/01/18 11:22:54;;;;;;;9.83;5.33;;;10.60;1.00;11.40;102601.00;;;;5025366;28;20491;-80
2022/01/18 11:25:25;;;;;;;8.87;5.93;;;10.90;1.00;11.50;102605.00;;;;5026802;28;20484;-80
2022/01/18 11:27:57;;;;;;;9.70;5.20;;;11.00;1.00;11.60;102607.00;;;;5031330;28;20457;-80
2022/01/18 11:30:31;;;;;;;8.07;5.00;;;11.20;1.00;11.80;102607.00;;;;5032794;28;20547;-80
2022/01/18 11:33:03;;;;;;;6.30;4.13;;;11.40;1.00;11.80;102594.00;;;;5036556;28;20468;-80
2022/01/18 11:35:43;;;;;;;8.37;4.30;;;11.40;1.00;12.00;102611.00;;;;5032424;28;20547;-82
2022/01/18 11:38:22;;;;;;;8.70;4.50;;;11.50;1.00;12.10;102603.00;;;;5026303;28;20469;-81
2022/01/18 11:40:55;;;;;;;7.20;3.80;;;11.60;1.00;12.20;102597.00;;;;5041867;28;20450;-81
2022/01/18 11:43:38;;;;;;;9.77;5.00;;;11.80;1.00;12.40;102593.00;;;;5027729;28;20800;-79
2022/01/18 11:46:25;;;;;;;7.73;4.57;;;11.90;1.00;12.50;102595.00;;;;5020350;28;20444;-80
2022/01/18 11:49:01;;;;;;;7.70;3.93;;;12.10;1.00;12.50;102560.00;;;;5019058;28;20472;-80
2022/01/18 11:51:38;;;;;;;13.33;3.80;;;12.10;1.00;12.50;102574.00;;;;5019870;28;20444;-80
2022/01/18 11:54:31;;;;;;;7.17;3.17;;;12.00;1.00;12.30;102589.00;;;;5032632;28;20456;-81
2022/01/18 11:57:01;;;;;;;5.10;2.43;;;11.70;1.00;12.40;102589.00;;;;5027215;28;21142;-80
2022/01/18 11:59:38;;;;;;;6.63;2.83;;;11.80;1.00;12.30;102573.00;;;;5024117;28;20453;-80
2022/01/18 12:02:07;;;;;;;5.10;2.70;;;11.80;1.00;12.30;102569.00;;;;5036870;28;20534;-80
2022/01/18 12:05:13;;;;;;;5.33;2.57;;;11.60;1.00;12.00;102589.00;;;;5024230;28;21505;-80
2022/01/18 12:07:57;;;;;;;3.60;2.63;;;11.40;1.00;12.20;102586.00;;;;5019634;28;20460;-79
2022/01/18 12:10:46;;;;;;;4.33;2.60;;;11.50;1.00;12.40;102582.00;;;;5018975;28;20457;-82
2022/01/18 12:13:33;;;;;;;4.43;3.10;;;11.80;1.00;12.50;102577.00;;;;5009212;28;20472;-77
2022/01/18 12:16:09;;;;;;;5.80;3.07;;;12.00;1.00;12.60;102568.00;;;;5016921;28;20457;-76
2022/01/18 12:18:54;;;;;;;4.10;2.27;;;12.10;1.00;12.70;102574.00;;;;5007643;28;20458;-76
2022/01/18 12:21:26;;;;;;;8.00;3.10;;;12.30;1.00;12.70;102579.00;;;;5012704;28;20472;-78